Latest Weather Observations for Glen Innes Airport

IDN60801

Issued at 7:35 pm EST Friday 1 August 2014 (issued every 30 minutes, with the page automatically refreshed every 10 minutes)

About weather observations | Map of weather stations | Latest weather observations for NSW | Other Formats
Station Details ID: 056243 Name: GLEN INNES AIRPORT AWS Lat: -29.68 Lon: 151.69 Height: 1044.3 m
Data from the previous 72 hours. | See also: Recent months for locations in New South Wales
Date/Time
EST
Temp
°C
App
Temp
°C
Dew
Point
Rel
Hum
%
Delta-T
°C
Wind Press
QNH
hPa
Press
MSL
hPa
Rain
since 9 am
mm
Dir
 
Spd
km/h
Gust
km/h
Spd
kts
Gust
kts
01/07:30pm 8.4 0.5 1.1 60 3.2 W 32 43 17 23 1017.1 - 0.0
01/07:00pm 9.4 0.8 0.1 52 4.0 W 35 48 19 26 1016.5 - 0.0
01/06:30pm 9.9 2.0 -1.2 46 4.6 W 30 46 16 25 1016.1 - 0.0
01/06:00pm 10.6 2.5 -2.8 39 5.4 W 30 41 16 22 1015.5 1015.2 0.0
01/05:30pm 12.4 2.4 -4.7 30 6.8 W 39 52 21 28 1014.8 - 0.0
01/05:00pm 13.0 3.5 -3.7 31 6.8 W 37 48 20 26 1014.5 - 0.0
01/04:38pm 14.0 4.5 -3.7 29 7.3 W 37 56 20 30 1014.1 - 0.0
01/04:30pm 14.5 3.8 -4.2 27 7.6 WNW 43 56 23 30 1014.1 - 0.0
01/04:00pm 15.1 3.5 -4.2 26 7.9 WNW 48 65 26 35 1013.6 - 0.0
01/03:30pm 15.5 3.1 -3.9 26 8.1 WNW 52 70 28 38 1013.5 - 0.0
01/03:00pm 15.9 3.1 -4.1 25 8.3 WNW 54 76 29 41 1013.2 1012.9 0.0
01/02:30pm 16.6 5.2 -2.0 28 8.1 WNW 48 72 26 39 1013.1 - 0.0
01/02:02pm 16.5 4.3 -2.5 27 8.2 W 52 72 28 39 1013.0 - 0.0
01/02:00pm 16.5 4.7 -2.5 27 8.2 W 50 65 27 35 1013.0 - 0.0
01/01:39pm 16.2 4.8 -1.8 29 7.9 WNW 48 67 26 36 1013.1 - 0.0
01/01:30pm 16.5 5.2 -1.1 30 7.8 WNW 48 61 26 33 1013.1 - 0.0
01/01:04pm 16.9 6.3 -1.7 28 8.2 WNW 44 63 24 34 1013.4 - 0.0
01/01:00pm 16.5 5.1 -2.5 27 8.2 WNW 48 63 26 34 1013.4 - 0.0
01/12:30pm 16.6 5.0 -1.0 30 7.8 WNW 50 69 27 37 1013.6 - 0.0
01/12:08pm 16.6 4.8 -2.0 28 8.1 WNW 50 69 27 37 1013.8 - 0.0
01/12:00pm 16.4 4.7 -1.7 29 7.9 WNW 50 65 27 35 1014.0 1013.6 0.0
01/11:30am 16.2 6.2 -1.4 30 7.8 WNW 41 56 22 30 1014.2 - 0.0
01/11:00am 15.8 6.8 0.4 35 7.0 WNW 37 57 20 31 1014.5 - 0.0
01/10:54am 15.1 6.0 -0.6 34 7.0 WNW 37 57 20 31 1014.6 - 0.0
01/10:30am 14.0 6.4 4.0 51 4.8 NW 33 46 18 25 1014.8 - 0.0
01/10:00am 12.9 5.7 4.8 58 4.0 NW 32 39 17 21 1015.0 - 0.0
01/09:30am 11.9 3.9 5.5 65 3.2 NW 37 48 20 26 1015.2 - 0.0
01/09:00am 10.8 3.0 5.1 68 2.8 NW 35 46 19 25 1015.4 1015.1 0.0
01/08:30am 9.9 3.1 4.9 71 2.4 WNW 30 39 16 21 1015.6 - 0.0
01/08:00am 9.1 2.9 4.5 73 2.2 NW 26 33 14 18 1015.3 - 0.0
01/07:30am 8.5 2.6 3.8 72 2.2 NW 24 35 13 19 1015.2 - 0.0
01/07:00am 7.8 1.8 3.1 72 2.1 NW 24 30 13 16 1015.2 - 0.0
01/06:30am 7.9 1.8 3.0 71 2.2 NW 24 32 13 17 1015.0 - 0.0
01/06:00am 7.9 2.2 2.6 69 2.4 NW 22 30 12 16 1015.0 1014.7 0.0
01/05:30am 8.4 2.7 2.8 68 2.5 NW 22 28 12 15 1015.0 - 0.0
01/05:00am 7.9 2.5 2.2 67 2.5 NW 20 24 11 13 1015.1 - 0.0
01/04:30am 7.4 2.5 1.9 68 2.4 NW 17 20 9 11 1015.3 - 0.0
01/04:00am 7.8 2.8 1.2 63 2.9 NW 17 20 9 11 1015.6 - 0.0
01/03:30am 8.7 3.3 1.4 60 3.2 NW 19 24 10 13 1015.8 - 0.0
01/03:00am 9.0 3.4 1.0 57 3.5 NW 20 26 11 14 1016.1 1015.8 0.0
01/02:30am 8.7 3.0 0.7 57 3.4 WNW 20 26 11 14 1016.3 - 0.0
01/02:00am 7.0 1.4 -0.2 60 3.0 WNW 19 22 10 12 1016.2 - 0.0
01/01:30am 7.6 2.1 0.6 61 3.0 NW 19 22 10 12 1016.4 - 0.0
01/01:00am 4.8 -0.1 -0.8 67 2.2 NW 15 19 8 10 1016.6 - 0.0
01/12:30am 4.8 0.8 -2.1 61 2.7 WNW 9 13 5 7 1016.8 - 0.0
01/12:00am 4.0 -0.5 -3.0 60 2.6 NW 11 13 6 7 1016.9 1016.7 0.0
 
Date/Time
EST
Temp
°C
App
Temp
°C
Dew
Point
Rel
Hum
%
Delta-T
°C
Wind Press
QNH
hPa
Press
MSL
hPa
Rain
since 9 am
mm
Dir
 
Spd
km/h
Gust
km/h
Spd
kts
Gust
kts
31/11:30pm 3.6 1.2 -2.8 63 2.4 CALM 0 0 0 0 1017.2 - 0.0
31/11:00pm 2.0 -0.4 -2.9 70 1.8 CALM 0 0 0 0 1017.3 - 0.0
31/10:30pm 2.5 0.2 -2.2 71 1.8 CALM 0 0 0 0 1017.6 - 0.0
31/10:00pm 2.0 -0.3 -2.7 71 1.7 CALM 0 0 0 0 1017.5 - 0.0
31/09:30pm 2.4 0.1 -2.7 69 1.9 CALM 0 0 0 0 1017.8 - 0.0
31/09:00pm 2.2 -0.3 -4.3 62 2.4 CALM 0 0 0 0 1017.8 1018.2 0.0
31/08:30pm 3.1 0.6 -3.7 61 2.5 CALM 0 0 0 0 1017.9 - 0.0
31/08:00pm 2.8 0.5 -2.3 69 1.9 CALM 0 0 0 0 1018.1 - 0.0
31/07:30pm 2.9 0.4 -4.3 59 2.6 CALM 0 6 0 3 1018.3 - 0.0
31/07:00pm 5.3 1.5 -4.0 51 3.4 WNW 7 7 4 4 1018.3 - 0.0
31/06:30pm 7.6 3.5 -3.0 47 4.1 NW 9 13 5 7 1017.8 - 0.0
31/06:00pm 6.6 2.0 -3.9 47 4.0 NW 11 13 6 7 1017.6 1018.0 0.0
31/05:30pm 9.5 4.6 -3.4 40 5.1 NW 13 15 7 8 1017.2 - 0.0
31/05:00pm 12.6 6.6 -2.8 34 6.4 NW 19 24 10 13 1017.3 - 0.0
31/04:30pm 14.7 9.1 -2.7 30 7.4 WNW 17 20 9 11 1017.2 - 0.0
31/04:00pm 15.4 8.2 -5.6 23 8.4 NW 24 32 13 17 1017.2 - 0.0
31/03:30pm 16.2 8.8 -3.8 25 8.4 NW 26 32 14 17 1017.4 - 0.0
31/03:00pm 16.5 9.5 -3.6 25 8.5 NW 24 33 13 18 1017.3 1017.6 0.0
31/02:30pm 16.9 8.9 -6.2 20 9.3 NW 28 35 15 19 1017.5 - 0.0
31/02:00pm 17.1 10.7 -5.4 21 9.2 NW 20 30 11 16 1017.7 - 0.0
31/01:30pm 17.4 11.0 -4.5 22 9.1 NW 20 32 11 17 1018.2 - 0.0
31/01:00pm 17.9 12.2 -3.5 23 9.2 NW 17 28 9 15 1018.8 - 0.0
31/12:30pm 17.4 12.3 -2.3 26 8.6 NW 15 20 8 11 1019.5 - 0.0
31/12:00pm 16.3 11.4 -3.2 26 8.3 WNW 13 22 7 12 1020.2 1020.6 0.0
31/11:30am 15.7 9.9 -4.2 25 8.2 W 17 24 9 13 1021.0 - 0.0
31/11:00am 15.3 10.0 -3.6 27 7.9 WNW 15 20 8 11 1021.6 - 0.0
31/10:30am 14.8 10.4 -2.1 31 7.2 W 11 17 6 9 1022.1 - 0.0
31/10:00am 13.0 9.4 0.7 43 5.5 W 9 15 5 8 1022.6 - 0.0
31/09:30am 11.4 8.4 1.9 52 4.3 N 7 9 4 5 1022.7 - 0.0
31/09:00am 8.4 5.7 2.8 68 2.5 E 6 7 3 4 1022.9 1023.4 0.0
31/08:30am 5.6 2.7 2.4 80 1.4 ESE 7 9 4 5 1022.8 - 0.0
31/08:00am 1.9 -2.1 0.3 89 0.6 SE 11 13 6 7 1022.4 - 0.0
31/07:30am -1.6 -6.0 -2.3 95 0.2 ESE 11 17 6 9 1022.4 - 0.0
31/07:00am -4.2 -8.1 -4.9 95 0.1 ESE 7 11 4 6 1022.1 - 0.0
31/06:30am -5.2 -9.2 -5.6 97 -0.1 ESE 7 9 4 5 1021.9 - 0.0
31/06:00am -5.1 -9.5 -6.2 92 0.1 SE 9 11 5 6 1021.7 1022.2 0.0
31/05:30am -3.5 -7.3 -3.8 98 -0.1 SE 7 11 4 6 1021.7 - 0.0
31/05:00am -3.5 -8.4 -3.6 99 -0.1 SSE 13 15 7 8 1021.6 - 0.0
31/04:30am -3.0 -6.6 -3.3 98 0.0 SE 6 9 3 5 1021.7 - 0.0
31/04:00am -2.8 -6.9 -3.2 97 0.0 SE 9 11 5 6 1021.7 - 0.0
31/03:30am -2.7 -6.9 -3.5 94 0.2 ESE 9 11 5 6 1021.6 - 0.0
31/03:00am -2.5 -7.0 -2.9 97 0.0 E 11 15 6 8 1021.8 1022.3 0.0
31/02:30am -3.0 -8.3 -3.4 97 0.0 E 15 17 8 9 1021.8 - 0.0
31/02:00am -2.7 -5.8 -3.0 98 0.0 SSE 4 7 2 4 1021.9 - 0.0
31/01:30am -2.5 -6.6 -3.0 96 0.1 SSE 9 11 5 6 1022.1 - 0.0
31/01:00am -1.6 -5.3 -2.6 93 0.3 SSE 7 11 4 6 1022.5 - 0.0
31/12:30am -1.5 -6.0 -3.1 89 0.5 SSE 11 13 6 7 1022.6 - 0.0
31/12:00am -2.0 -6.1 -3.4 90 0.4 ESE 9 11 5 6 1022.8 1023.3 0.0
 
Date/Time
EST
Temp
°C
App
Temp
°C
Dew
Point
Rel
Hum
%
Delta-T
°C
Wind Press
QNH
hPa
Press
MSL
hPa
Rain
since 9 am
mm
Dir
 
Spd
km/h
Gust
km/h
Spd
kts
Gust
kts
30/11:30pm -0.7 -4.3 -3.5 81 1.0 SSW 6 9 3 5 1023.0 - 0.0
30/11:00pm 2.1 -1.2 -1.0 80 1.2 W 6 7 3 4 1023.3 - 0.0
30/10:30pm 1.0 -2.3 -1.6 83 1.0 W 6 7 3 4 1023.1 - 0.0
30/10:00pm 1.1 -2.2 -1.6 82 1.0 WSW 6 7 3 4 1023.0 - 0.0
30/09:30pm 2.9 -1.0 -1.8 71 1.8 SW 9 13 5 7 1022.9 - 0.0
30/09:00pm 2.5 0.3 -1.8 73 1.6 CALM 0 0 0 0 1023.0 1023.5 0.0
30/08:30pm 2.8 0.6 -1.5 73 1.6 CALM 0 0 0 0 1022.8 - 0.0
30/08:00pm 2.5 0.2 -2.4 70 1.8 CALM 0 0 0 0 1022.8 - 0.0
30/07:30pm 4.2 2.1 -1.0 69 2.1 CALM 0 0 0 0 1022.7 - 0.0
30/07:00pm 4.5 1.0 -1.3 66 2.3 WSW 7 9 4 5 1022.5 - 0.0
30/06:30pm 5.5 2.0 -2.8 55 3.2 W 6 9 3 5 1022.3 - 0.0
30/06:00pm 7.9 3.6 -1.6 51 3.8 W 11 13 6 7 1022.0 1022.5 0.0
30/05:30pm 9.4 5.5 -1.6 46 4.5 W 9 11 5 6 1021.9 - 0.0
30/05:00pm 12.4 8.2 -1.1 39 5.8 W 11 15 6 8 1021.8 - 0.0
30/04:30pm 15.0 9.9 -2.0 31 7.3 W 15 20 8 11 1021.8 - 0.0
30/04:00pm 15.8 10.7 -2.2 29 7.8 WSW 15 20 8 11 1021.7 - 0.0
30/03:30pm 16.5 11.5 -1.1 30 7.8 WSW 15 20 8 11 1021.6 - 0.0
30/03:00pm 16.5 11.4 -1.6 29 7.9 SW 15 22 8 12 1021.5 1021.9 0.0
30/02:30pm 16.4 10.6 -1.2 30 7.8 WSW 19 24 10 13 1021.5 - 0.0
30/02:00pm 16.3 11.3 -1.3 30 7.8 WSW 15 24 8 13 1021.7 - 0.0
30/01:30pm 16.2 10.4 -1.8 29 7.9 WSW 19 26 10 14 1021.7 - 0.0
30/01:00pm 16.1 10.7 -1.0 31 7.6 WSW 17 24 9 13 1022.0 - 0.0
30/12:30pm 15.5 10.2 -0.3 34 7.1 SW 17 26 9 14 1022.5 - 0.0
30/12:00pm 15.1 9.2 -0.6 34 6.9 SW 20 26 11 14 1023.0 1023.5 0.0
30/11:30am 14.8 9.1 -0.9 34 6.9 WSW 19 26 10 14 1023.6 - 0.0
30/11:00am 13.7 8.3 -1.5 35 6.5 WSW 17 24 9 13 1024.0 - 0.0
30/10:30am 13.2 7.9 -0.4 39 6.0 WSW 17 22 9 12 1024.6 - 0.0
30/10:00am 12.5 8.1 0.3 43 5.4 SW 13 20 7 11 1024.8 - 0.0
30/09:30am 10.5 7.6 2.4 57 3.7 WNW 7 11 4 6 1024.8 - 0.0
30/09:00am 8.5 7.2 4.3 75 2.0 CALM 0 6 0 3 1024.6 1025.1 0.0
30/08:30am 4.1 1.2 2.6 90 0.6 E 7 9 4 5 1024.5 - 0.0
30/08:00am 1.3 -1.9 0.9 97 0.2 E 7 9 4 5 1024.6 - 0.0
30/07:30am -2.4 -4.7 -2.5 99 -0.1 CALM 0 0 0 0 1024.4 - 0.0
30/07:00am -3.8 - -3.5 - - S 7 9 4 5 1024.4 - 0.0
30/06:30am -4.9 -8.8 -4.9 100 0.0 SE 7 9 4 5 1024.0 - 0.0
30/06:00am -4.9 - -4.8 - - SE 6 7 3 4 1023.7 1024.2 0.0
30/05:30am -5.6 -10.0 -6.3 95 0.0 SE 9 11 5 6 1023.4 - 0.0
30/05:00am -4.1 -7.9 -4.1 100 0.0 ESE 7 7 4 4 1023.3 - 0.0
30/04:30am -4.2 -7.9 -4.5 98 -0.1 ESE 6 7 3 4 1022.9 - 0.0
30/04:00am -3.9 -7.8 -4.4 96 0.0 ESE 7 7 4 4 1022.9 - 0.0
30/03:30am -3.5 -6.9 -5.3 87 0.4 ESE 4 9 2 5 1022.8 - 0.0
30/03:00am -3.7 -7.6 -4.2 96 0.0 ESE 7 7 4 4 1022.9 1023.4 0.0
30/02:30am -3.1 -5.6 -4.1 93 0.2 CALM 0 0 0 0 1023.0 - 0.0
30/02:00am -2.8 -5.3 -3.8 93 0.2 CALM 0 0 0 0 1023.1 - 0.0
30/01:30am -1.0 -4.4 -1.7 95 0.2 NW 6 7 3 4 1023.1 - 0.0
30/01:00am -0.9 -3.3 -2.8 87 0.6 CALM 0 0 0 0 1023.3 - 0.0
30/12:30am 0.4 -2.8 -3.5 75 1.4 W 4 6 2 3 1023.4 - 0.0
30/12:00am 2.0 0.0 -0.1 86 0.8 CALM 0 7 0 4 1023.4 1023.9 0.0
 
Date/Time
EST
Temp
°C
App
Temp
°C
Dew
Point
Rel
Hum
%
Delta-T
°C
Wind Press
QNH
hPa
Press
MSL
hPa
Rain
since 9 am
mm
Dir
 
Spd
km/h
Gust
km/h
Spd
kts
Gust
kts
29/11:30pm -0.2 -3.7 -2.6 84 0.9 NNE 6 9 3 5 1023.3 - 0.0
29/11:00pm 0.0 -4.4 -2.1 86 0.8 WNW 11 13 6 7 1023.5 - 0.0
29/10:30pm 0.1 -3.8 -1.8 87 0.7 NW 9 9 5 5 1023.6 - 0.0
29/10:00pm 0.2 -1.9 -1.1 91 0.5 CALM 0 0 0 0 1023.7 - 0.0
29/09:30pm -1.2 -5.0 -3.4 85 0.7 SSE 7 7 4 4 1023.8 - 0.0
29/09:00pm 1.9 -1.4 -1.2 80 1.2 SE 6 6 3 3 1023.4 1023.9 0.0
29/08:30pm 2.4 0.3 -0.5 81 1.1 CALM 0 0 0 0 1023.0 - 0.0
29/08:00pm 0.0 -3.7 -2.7 82 1.0 S 7 9 4 5 1022.6 - 0.0

Other Formats:

Comma delimited format used in spreadsheet applications
http://www.bom.gov.au/fwo/IDN60801/IDN60801.94588.axf

JavaScript Object Notation format (JSON) in row-major order
http://www.bom.gov.au/fwo/IDN60801/IDN60801.94588.json